Terminal Aerodrome Forecast
Issued by NWS

Home | Current Version | Previous Version | Text Only | Print | Product List | Glossary On
Versions: 1 2 3 4 5 6 7 8 9 10 11 12 13 14 15 16 17 18 19 20
000
FTUS46 KMFR 302300
TAFOTH
TAF
KOTH 302340Z 3100/3124 31005KT P6SM SCT015
     FM310400 27003KT P6SM BKN050
     FM310900 16003KT P6SM BKN020
     FM311000 16003KT 3SM -DZ BR OVC005=

USA.gov is the U.S. government's official web portal to all federal, state and local government web resources and services.